KHPT/HPT METAR and TAF weather

Enter ICAO airport designator
Station Type Date Time Source
KHPT METAR 2019/06/18 16:35 UTC NOAA

KHPT 181635Z AUTO 00000KT 3SM -DZ SCT006 BKN025 OVC038 17/16 A2999 RMK AO2


Station Type Date Time Source
KHPT Decoded METAR 2019/06/18 16:35 UTC NOAA

Station name not available
Jun 18, 2019 - 12:35 PM EDT / 2019.06.18 1635 UTC
Wind: Calm:0
Visibility: 3 mile(s):0
Sky conditions: overcast
Weather: light drizzle
Temperature: 62 F (17 C)
Dew Point: 60 F (16 C)
Relative Humidity: 93%
Pressure (altimeter): 29.99 in. Hg (1015 hPa)
ob: KHPT 181635Z AUTO 00000KT 3SM -DZ SCT006 BKN025 OVC038 17/16 A2999 RMK AO2
cycle: 16

Station Type Date Time Source
KHPT TAF UTC NOAA

Error!

Example: see airport list